Aviation Digital Data Service (ADDS)

Output produced by METARs form (1929 UTC 27 May 2017)
found at http://aviationweather.gov/adds/metars/
 
KDEN 271921Z 2719/2824 03015G24KT 6SM -RA VCTS FEW030 BKN045CB OVC060 
     TEMPO 2719/2721 4SM -RA BKN030 OVC040 
     FM272100 35010G15KT P6SM VCSH SCT045 BKN060 
     FM280100 32007KT P6SM SCT060 BKN120 
     FM280500 24006KT P6SM FEW060 SCT120 
     FM281500 32007KT P6SM FEW140 
     FM282000 33010KT P6SM FEW080 SCT120